createdAt,value
2023-04-02T00:11:40.448Z,65.63
2023-04-02T00:14:22.702Z,65.39
2023-04-02T00:17:06.469Z,65.34
2023-04-02T00:19:48.476Z,65.19
2023-04-02T00:22:34.548Z,64.98
2023-04-02T00:39:21.384Z,64.88
2023-04-02T00:42:04.393Z,64.77
2023-04-02T00:44:41.676Z,64.95
2023-04-02T00:47:27.431Z,64.66
2023-04-02T00:50:19.095Z,64.55
2023-04-02T00:53:02.417Z,64.49
2023-04-02T01:06:20.393Z,64.40
2023-04-02T01:09:12.070Z,64.19
2023-04-02T01:12:29.417Z,64.01
2023-04-02T01:15:12.714Z,64.28
2023-04-02T01:18:32.419Z,64.26
2023-04-02T01:31:46.553Z,63.80
2023-04-02T01:34:26.040Z,64.09
2023-04-02T01:37:41.417Z,63.86
2023-04-02T01:40:34.707Z,63.71
2023-04-02T01:43:29.411Z,63.28
2023-04-02T01:57:24.424Z,63.07
2023-04-02T02:00:04.881Z,63.34
2023-04-02T02:02:49.304Z,63.55
2023-04-02T02:05:23.996Z,63.40
2023-04-02T02:08:03.418Z,63.36
2023-04-02T02:10:39.520Z,63.30
2023-04-02T02:13:13.381Z,63.16
2023-04-02T02:25:31.405Z,63.75
2023-04-02T02:28:10.172Z,63.67
2023-04-02T02:30:55.545Z,63.43
2023-04-02T02:33:37.087Z,63.44
2023-04-02T02:36:30.415Z,63.36
2023-04-02T02:39:14.594Z,63.16
2023-04-02T02:52:22.365Z,63.59
2023-04-02T02:55:14.401Z,63.67
2023-04-02T02:58:00.820Z,63.31
2023-04-02T03:00:50.406Z,63.18
2023-04-02T03:03:32.940Z,63.21
2023-04-02T03:20:04.393Z,63.07
2023-04-02T03:22:46.609Z,62.74
2023-04-02T03:28:18.765Z,62.89
2023-04-02T03:31:00.471Z,62.94
2023-04-02T03:33:39.890Z,62.88
2023-04-02T03:46:44.428Z,62.76
2023-04-02T03:49:35.390Z,62.42
2023-04-02T03:52:14.128Z,62.40
2023-04-02T03:54:54.631Z,62.47
2023-04-02T03:57:37.683Z,62.42
2023-04-02T04:11:18.424Z,62.41
2023-04-02T04:14:07.380Z,62.50
2023-04-02T04:16:48.574Z,62.70
2023-04-02T04:19:45.445Z,62.65
2023-04-02T04:22:25.009Z,62.89
2023-04-02T04:39:06.400Z,62.32
2023-04-02T04:41:43.444Z,62.38
2023-04-02T04:44:31.400Z,62.55
2023-04-02T04:47:15.122Z,62.51
2023-04-02T04:50:04.413Z,62.54
2023-04-02T04:52:42.498Z,62.58
2023-04-02T05:05:45.356Z,62.44
2023-04-02T05:08:33.263Z,62.44
2023-04-02T05:11:15.210Z,62.27
2023-04-02T05:14:02.400Z,62.39
2023-04-02T05:16:47.140Z,62.62
2023-04-02T05:19:39.361Z,62.63
2023-04-02T05:33:02.375Z,62.77
2023-04-02T05:35:45.104Z,62.99
2023-04-02T05:38:31.379Z,63.13
2023-04-02T05:41:20.428Z,63.21
2023-04-02T05:44:13.402Z,63.15
2023-04-02T05:58:33.728Z,62.55
2023-04-02T06:01:30.345Z,62.35
2023-04-02T06:04:28.377Z,62.49
2023-04-02T06:07:10.620Z,62.62
2023-04-02T06:10:13.461Z,62.38
2023-04-02T06:12:54.397Z,62.50
2023-04-02T06:25:57.333Z,62.55
2023-04-02T06:28:48.366Z,62.02
2023-04-02T06:31:35.250Z,62.36
2023-04-02T06:34:25.913Z,62.55
2023-04-02T06:37:24.290Z,62.33
2023-04-02T06:53:57.398Z,62.50
2023-04-02T06:56:42.061Z,62.35
2023-04-02T06:59:31.348Z,62.06
2023-04-02T07:02:29.490Z,62.17
2023-04-02T07:19:04.363Z,62.48
2023-04-02T07:21:38.054Z,62.70
2023-04-02T07:24:13.354Z,62.47
2023-04-02T07:26:46.571Z,62.38
2023-04-02T07:29:22.340Z,62.69
2023-04-02T07:31:55.772Z,62.76
2023-04-02T07:34:32.081Z,62.69
2023-04-02T07:47:42.372Z,62.46
2023-04-02T07:50:17.886Z,62.39
2023-04-02T07:52:51.369Z,62.50
2023-04-02T07:55:24.682Z,62.64
2023-04-02T07:58:01.350Z,62.36
2023-04-02T08:11:56.374Z,62.22
2023-04-02T08:14:31.556Z,62.16
2023-04-02T08:17:05.416Z,62.11
2023-04-02T08:19:51.729Z,61.98
2023-04-02T08:22:34.353Z,62.28
2023-04-02T08:25:09.334Z,62.44
2023-04-02T08:27:42.375Z,62.28
2023-04-02T08:40:57.354Z,62.35
2023-04-02T08:44:13.202Z,62.17
2023-04-02T08:46:59.350Z,61.94
2023-04-02T08:49:44.258Z,61.79
2023-04-02T08:52:31.350Z,62.14
2023-04-02T09:05:52.363Z,61.99
2023-04-02T09:08:29.796Z,62.04
2023-04-02T09:11:16.345Z,62.08
2023-04-02T09:13:56.746Z,61.77
2023-04-02T09:16:54.347Z,61.69
2023-04-02T09:19:36.525Z,61.78
2023-04-02T09:32:55.298Z,62.27
2023-04-02T09:35:38.135Z,62.53
2023-04-02T09:38:20.679Z,62.26
2023-04-02T09:41:06.347Z,62.05
2023-04-02T09:43:39.826Z,62.17
2023-04-02T09:46:31.354Z,61.76
2023-04-02T09:49:17.461Z,61.73
2023-04-02T09:59:21.316Z,62.04
2023-04-02T10:02:00.731Z,62.18
2023-04-02T10:04:48.651Z,61.92
2023-04-02T10:07:33.463Z,61.80
2023-04-02T10:10:28.345Z,61.88
2023-04-02T10:13:08.669Z,61.78
2023-04-02T10:26:29.279Z,62.13
2023-04-02T10:29:39.333Z,61.94
2023-04-02T10:32:18.514Z,61.98
2023-04-02T10:35:05.353Z,61.79
2023-04-02T10:38:28.820Z,61.72
2023-04-02T10:54:55.322Z,62.17
2023-04-02T10:57:39.036Z,62.16
2023-04-02T11:00:31.336Z,62.10
2023-04-02T11:03:12.328Z,62.23
2023-04-02T11:05:57.184Z,62.42
2023-04-02T11:08:40.873Z,62.13
2023-04-02T11:21:58.714Z,61.92
2023-04-02T11:24:50.388Z,61.96
2023-04-02T11:27:27.762Z,61.55
2023-04-02T11:30:31.302Z,61.58
2023-04-02T11:33:41.386Z,61.70
2023-04-02T11:47:26.328Z,61.39
2023-04-02T11:50:09.384Z,61.81
2023-04-02T11:52:53.258Z,61.92
2023-04-02T11:55:38.626Z,61.79
2023-04-02T11:58:40.118Z,61.96
2023-04-02T12:15:04.322Z,61.89
2023-04-02T12:17:39.688Z,61.85
2023-04-02T12:20:28.310Z,61.85
2023-04-02T12:23:02.501Z,61.66
2023-04-02T12:25:40.484Z,61.64
2023-04-02T12:28:16.582Z,61.65
2023-04-02T12:41:10.275Z,60.86
2023-04-02T12:43:50.313Z,60.57
2023-04-02T12:46:23.812Z,60.80
2023-04-02T12:48:58.242Z,60.53
2023-04-02T12:51:32.179Z,60.63
2023-04-02T12:54:05.305Z,60.85
2023-04-02T13:06:29.293Z,61.03
2023-04-02T13:09:06.361Z,61.10
2023-04-02T13:11:47.295Z,61.12
2023-04-02T13:14:23.995Z,61.29
2023-04-02T13:17:04.297Z,61.37
2023-04-02T13:19:37.561Z,61.13
2023-04-02T13:33:01.306Z,61.08
2023-04-02T13:35:41.332Z,60.89
2023-04-02T13:38:14.538Z,60.98
2023-04-02T13:40:48.292Z,61.17
2023-04-02T13:43:21.745Z,61.21
2023-04-02T13:46:00.368Z,61.43
2023-04-02T13:48:35.988Z,61.39
2023-04-02T14:01:25.361Z,61.58
2023-04-02T14:04:08.382Z,61.73
2023-04-02T14:07:04.224Z,61.64
2023-04-02T14:10:04.294Z,61.68
2023-04-02T14:13:00.817Z,61.66
2023-04-02T14:26:31.247Z,62.10
2023-04-02T14:29:22.099Z,62.13
2023-04-02T14:32:05.063Z,61.87
2023-04-02T14:34:59.366Z,62.00
2023-04-02T14:37:46.797Z,62.02
2023-04-02T14:54:19.235Z,62.11
2023-04-02T14:56:58.060Z,62.21
2023-04-02T14:59:44.264Z,61.84
2023-04-02T15:02:30.193Z,62.00
2023-04-02T15:05:21.288Z,61.90
2023-04-02T15:08:03.090Z,62.05
2023-04-02T15:21:15.245Z,62.13
2023-04-02T15:24:09.263Z,62.23
2023-04-02T15:26:57.582Z,62.30
2023-04-02T15:29:53.289Z,62.40
2023-04-02T15:32:36.347Z,62.18
2023-04-02T15:49:11.271Z,62.39
2023-04-02T15:52:01.175Z,62.40
2023-04-02T15:55:09.217Z,62.30
2023-04-02T15:58:13.498Z,62.55
2023-04-02T16:14:38.259Z,62.81
2023-04-02T16:17:25.021Z,62.96
2023-04-02T16:20:24.275Z,63.01
2023-04-02T16:23:05.973Z,63.10
2023-04-02T16:25:59.131Z,62.99
2023-04-02T16:28:42.590Z,62.80
2023-04-02T16:41:58.236Z,63.00
2023-04-02T16:44:58.243Z,62.97
2023-04-02T16:47:53.685Z,63.12
2023-04-02T16:50:47.257Z,62.94
2023-04-02T16:53:47.841Z,63.04
2023-04-02T17:07:17.238Z,63.32
2023-04-02T17:10:00.302Z,63.37
2023-04-02T17:13:02.393Z,63.40
2023-04-02T17:15:45.255Z,63.33
2023-04-02T17:18:21.232Z,63.41
2023-04-02T17:34:36.279Z,63.29
2023-04-02T17:37:27.746Z,63.18
2023-04-02T17:40:27.360Z,63.48
2023-04-02T17:43:13.240Z,63.28
2023-04-02T17:45:59.313Z,63.18
2023-04-02T17:48:44.826Z,63.41
2023-04-02T18:01:53.208Z,63.25
2023-04-02T18:04:55.274Z,63.40
2023-04-02T18:07:43.006Z,63.60
2023-04-02T18:10:33.405Z,63.40
2023-04-02T18:13:23.330Z,63.33
2023-04-02T18:29:57.267Z,63.60
2023-04-02T18:33:15.150Z,63.44
2023-04-02T18:36:06.314Z,63.64
2023-04-02T18:38:47.555Z,63.54
2023-04-02T18:41:50.321Z,63.45
2023-04-02T18:44:53.615Z,63.51
2023-04-02T18:54:33.220Z,63.55
2023-04-02T18:57:14.560Z,63.59
2023-04-02T19:00:05.407Z,63.62
2023-04-02T19:02:46.908Z,63.46
2023-04-02T19:05:39.424Z,63.55
2023-04-02T19:08:22.005Z,63.76
2023-04-02T19:21:33.185Z,63.48
2023-04-02T19:24:42.223Z,63.65
2023-04-02T19:27:31.486Z,63.57
2023-04-02T19:30:39.231Z,63.76
2023-04-02T19:33:40.592Z,63.66
2023-04-02T19:50:02.242Z,63.75
2023-04-02T19:52:35.473Z,63.76
2023-04-02T19:55:09.233Z,63.67
2023-04-02T19:57:42.774Z,63.72
2023-04-02T20:00:20.941Z,63.76
2023-04-02T20:02:54.515Z,63.88
2023-04-02T20:15:00.194Z,63.67
2023-04-02T20:17:40.266Z,63.43
2023-04-02T20:20:13.841Z,63.31
2023-04-02T20:22:49.348Z,63.41
2023-04-02T20:25:22.517Z,63.30
2023-04-02T20:27:56.245Z,63.16
2023-04-02T20:41:09.233Z,63.19
2023-04-02T20:43:42.481Z,63.08
2023-04-02T20:46:19.323Z,62.81
2023-04-02T20:48:52.533Z,62.89
2023-04-02T20:51:26.230Z,62.93
2023-04-02T20:53:59.758Z,63.03
2023-04-02T21:10:16.201Z,62.80
2023-04-02T21:12:49.487Z,62.70
2023-04-02T21:15:23.216Z,62.76
2023-04-02T21:17:56.548Z,62.79
2023-04-02T21:20:30.214Z,62.59
2023-04-02T21:23:03.565Z,62.35
2023-04-02T21:35:54.204Z,61.50
2023-04-02T21:38:34.200Z,61.36
2023-04-02T21:41:13.171Z,61.40
2023-04-02T21:43:53.181Z,61.41
2023-04-02T21:46:29.523Z,61.46
2023-04-02T21:49:05.275Z,61.43
2023-04-02T22:02:17.211Z,60.93
2023-04-02T22:04:50.453Z,60.40
2023-04-02T22:07:24.952Z,59.13
2023-04-02T22:09:58.474Z,56.18
2023-04-02T22:12:32.198Z,54.76
2023-04-02T22:15:07.019Z,53.99
2023-04-02T22:28:06.162Z,52.45
2023-04-02T22:30:46.177Z,52.72
2023-04-02T22:33:19.538Z,52.38
2023-04-02T22:35:56.243Z,51.71
2023-04-02T22:38:30.370Z,51.18
2023-04-02T22:41:13.193Z,52.08
2023-04-02T22:43:49.306Z,51.64
2023-04-02T22:56:37.139Z,52.73
2023-04-02T22:59:19.173Z,52.67
2023-04-02T23:01:52.547Z,52.86
2023-04-02T23:04:26.182Z,52.49
2023-04-02T23:06:59.500Z,52.83
2023-04-02T23:09:42.096Z,51.95
2023-04-02T23:22:54.203Z,51.75
2023-04-02T23:25:27.450Z,51.72
2023-04-02T23:28:01.162Z,51.71
2023-04-02T23:30:34.658Z,51.68
2023-04-02T23:33:08.244Z,51.80
2023-04-02T23:48:46.151Z,52.51
2023-04-02T23:51:26.184Z,52.42
2023-04-02T23:53:59.626Z,53.01
2023-04-02T23:56:34.862Z,52.94
2023-04-02T23:59:08.558Z,52.56
